Time;durP1;ratioP1;P1;durP2;ratioP2;P2;SDS_P1;SDS_P2;PMS_P1;PMS_P2;Temp;Humidity;BMP_temperature;BMP_pressure;BME280_temperature;BME280_humidity;BME280_pressure;Samples;Min_cycle;Max_cycle;Signal;HPM_P1;HPM_P2
2023/03/28 00:00:55;;;;;;;1.33;0.30;;;;;;;0.99;51.12;101579.25;5080453;28;20499;-69
2023/03/28 00:03:21;;;;;;;0.77;0.25;;;;;;;1.00;51.21;101578.31;5063080;28;20530;-68
2023/03/28 00:05:50;;;;;;;1.52;0.32;;;;;;;1.06;51.38;101588.41;5063022;28;20055;-69
2023/03/28 00:08:17;;;;;;;0.60;0.32;;;;;;;0.89;51.00;101589.72;5080703;28;20072;-67
2023/03/28 00:10:43;;;;;;;0.57;0.30;;;;;;;1.07;50.82;101587.47;5061625;28;20376;-68
2023/03/28 00:13:09;;;;;;;0.68;0.30;;;;;;;1.40;51.92;101595.44;5062324;28;20062;-68
2023/03/28 00:15:37;;;;;;;1.98;0.35;;;;;;;1.55;52.23;101589.91;5062250;28;20060;-68
2023/03/28 00:18:04;;;;;;;1.15;0.20;;;;;;;1.50;51.54;101597.38;5080381;28;20030;-69
2023/03/28 00:20:30;;;;;;;0.75;0.30;;;;;;;1.53;52.35;101605.09;5080086;28;20036;-68
2023/03/28 00:22:56;;;;;;;1.00;0.40;;;;;;;1.47;52.87;101602.94;5044769;28;20174;-68
2023/03/28 00:25:22;;;;;;;1.10;0.40;;;;;;;1.12;53.59;101601.19;5044725;28;20049;-68
2023/03/28 00:27:48;;;;;;;1.05;0.40;;;;;;;1.17;53.50;101610.50;5061818;28;20086;-68
2023/03/28 00:30:13;;;;;;;2.63;0.40;;;;;;;0.97;51.95;101602.41;5081755;28;20043;-68
2023/03/28 00:32:39;;;;;;;0.82;0.35;;;;;;;1.14;51.67;101612.53;5068055;28;20048;-68
2023/03/28 00:35:05;;;;;;;1.27;0.40;;;;;;;1.20;52.29;101613.88;5069036;28;20040;-69
2023/03/28 00:37:30;;;;;;;0.70;0.20;;;;;;;1.25;52.04;101612.53;5068863;28;20020;-68
2023/03/28 00:39:58;;;;;;;1.40;0.35;;;;;;;1.52;52.62;101609.53;5086111;28;20039;-68
2023/03/28 00:42:24;;;;;;;1.90;0.45;;;;;;;1.60;52.32;101622.22;5070050;28;20078;-68
2023/03/28 00:44:57;;;;;;;0.98;0.20;;;;;;;1.45;52.15;101603.03;5062748;28;20475;-68
2023/03/28 00:47:25;;;;;;;3.20;0.40;;;;;;;1.53;52.18;101629.81;5044676;28;20032;-67
2023/03/28 00:49:56;;;;;;;0.52;0.30;;;;;;;1.63;52.17;101614.03;5064153;28;20028;-68
2023/03/28 00:52:28;;;;;;;1.15;0.40;;;;;;;1.57;53.30;101630.41;5068412;28;20028;-68
2023/03/28 00:54:56;;;;;;;1.40;0.30;;;;;;;1.52;52.99;101616.66;5068281;28;20030;-68
2023/03/28 00:57:23;;;;;;;1.55;0.45;;;;;;;1.67;52.33;101635.84;5051938;28;20024;-69
2023/03/28 00:59:50;;;;;;;0.38;0.22;;;;;;;1.40;51.70;101621.13;5069928;28;20735;-69
2023/03/28 01:02:15;;;;;;;0.73;0.30;;;;;;;1.65;51.50;101641.25;5068659;28;20051;-68
2023/03/28 01:05:02;;;;;;;0.47;0.20;;;;;;;1.52;50.91;101640.53;5050695;28;20048;-68
2023/03/28 01:07:34;;;;;;;0.70;0.30;;;;;;;1.51;52.47;101637.03;5068124;28;20032;-69
2023/03/28 01:10:01;;;;;;;1.75;0.50;;;;;;;1.55;51.41;101640.28;5084229;28;20104;-69
2023/03/28 01:12:27;;;;;;;2.15;0.32;;;;;;;1.39;51.74;101633.56;5064320;28;20128;-68
2023/03/28 01:14:52;;;;;;;1.25;0.50;;;;;;;1.54;51.32;101641.25;5052079;28;20052;-68
2023/03/28 01:17:17;;;;;;;0.85;0.30;;;;;;;1.24;51.31;101628.59;5068608;28;20578;-68
2023/03/28 01:20:08;;;;;;;0.90;0.30;;;;;;;1.27;51.13;101636.31;5067832;28;20070;-68
2023/03/28 01:22:58;;;;;;;0.65;0.20;;;;;;;1.54;51.82;101650.06;5067910;28;20031;-68
2023/03/28 01:25:57;;;;;;;0.55;0.32;;;;;;;1.70;51.55;101655.03;5086560;28;20101;-68
2023/03/28 01:28:58;;;;;;;0.90;0.30;;;;;;;1.27;52.26;101642.44;5068364;28;20538;-69
2023/03/28 01:31:48;;;;;;;0.38;0.20;;;;;;;1.28;50.89;101641.47;5003931;28;20501;-68
2023/03/28 01:34:51;;;;;;;2.20;0.43;;;;;;;1.48;51.41;101647.03;5082229;28;20099;-68
2023/03/28 01:37:55;;;;;;;1.52;0.22;;;;;;;1.50;50.94;101643.31;5004526;28;20045;-68
2023/03/28 01:40:50;;;;;;;1.23;0.30;;;;;;;1.48;49.18;101647.03;5068419;28;20039;-69
2023/03/28 01:43:18;;;;;;;0.98;0.50;;;;;;;1.41;51.18;101647.50;5054498;28;20074;-68
2023/03/28 01:46:01;;;;;;;0.77;0.30;;;;;;;1.59;51.34;101652.34;5086405;28;20021;-68
2023/03/28 01:48:32;;;;;;;0.73;0.40;;;;;;;1.69;50.88;101655.13;5086150;28;20043;-68
2023/03/28 01:51:19;;;;;;;0.77;0.30;;;;;;;1.94;50.92;101654.03;5083439;28;20497;-68
2023/03/28 01:53:53;;;;;;;1.30;0.30;;;;;;;1.85;51.16;101643.22;5086086;28;20028;-68
2023/03/28 01:56:41;;;;;;;0.95;0.35;;;;;;;1.85;50.25;101647.63;5068359;28;20115;-68
2023/03/28 01:59:26;;;;;;;0.52;0.30;;;;;;;1.52;48.98;101640.53;5068915;28;20024;-68
2023/03/28 02:02:01;;;;;;;1.48;1.00;;;;;;;1.81;49.49;101647.03;5063738;28;20061;-69
2023/03/28 02:04:29;;;;;;;0.60;0.25;;;;;;;1.69;49.82;101648.03;5078031;28;20023;-69
2023/03/28 02:06:56;;;;;;;1.20;0.30;;;;;;;1.54;49.30;101628.00;5064391;28;20024;-67
2023/03/28 02:09:23;;;;;;;0.50;0.20;;;;;;;1.54;50.58;101639.44;5059316;28;20044;-68
2023/03/28 02:11:55;;;;;;;0.90;0.30;;;;;;;1.64;51.01;101652.84;5067754;28;20091;-67
2023/03/28 02:14:25;;;;;;;0.77;0.30;;;;;;;1.54;50.91;101659.84;5079920;28;20107;-69
2023/03/28 02:16:59;;;;;;;1.58;0.28;;;;;;;1.27;51.08;101657.50;5067828;28;20051;-69
2023/03/28 02:19:27;;;;;;;0.90;0.50;;;;;;;1.32;50.88;101642.06;5068858;28;20475;-68
2023/03/28 02:22:05;;;;;;;0.85;0.30;;;;;;;1.23;48.72;101648.94;5085183;28;20042;-69
2023/03/28 02:24:31;;;;;;;1.63;0.30;;;;;;;1.43;49.58;101654.53;5085764;28;20040;-68
2023/03/28 02:26:57;;;;;;;1.77;0.30;;;;;;;1.32;49.60;101653.53;5067004;28;20126;-68
2023/03/28 02:29:23;;;;;;;0.85;0.20;;;;;;;1.40;49.56;101655.59;5050302;28;20044;-68
2023/03/28 02:31:48;;;;;;;0.40;0.28;;;;;;;1.38;49.46;101661.00;5066983;28;20087;-69
2023/03/28 02:34:14;;;;;;;0.75;0.30;;;;;;;1.33;49.83;101662.34;5084942;28;20044;-68
2023/03/28 02:36:55;;;;;;;0.73;0.30;;;;;;;1.44;50.24;101659.69;5066770;28;20048;-67
2023/03/28 02:39:45;;;;;;;0.40;0.30;;;;;;;1.27;50.46;101668.97;5077677;28;20386;-68
2023/03/28 02:42:16;;;;;;;2.05;0.70;;;;;;;1.36;51.09;101656.81;5065262;28;20360;-67
2023/03/28 02:44:57;;;;;;;1.80;0.43;;;;;;;1.18;50.95;101673.16;5067324;28;20048;-68
2023/03/28 02:47:25;;;;;;;1.45;0.40;;;;;;;1.11;51.08;101660.47;5084273;28;20664;-68
2023/03/28 02:50:13;;;;;;;1.25;0.40;;;;;;;1.21;49.92;101658.81;5067017;28;20032;-67
2023/03/28 02:52:50;;;;;;;0.90;0.35;;;;;;;1.17;50.95;101657.38;5084425;28;20025;-68
2023/03/28 02:55:37;;;;;;;1.13;0.20;;;;;;;1.04;51.51;101665.41;5084802;28;20084;-68
2023/03/28 02:58:22;;;;;;;1.15;0.40;;;;;;;0.97;51.30;101660.69;5083287;28;20070;-66
2023/03/28 03:00:48;;;;;;;1.05;0.30;;;;;;;1.03;51.51;101670.84;5083735;28;20108;-69
2023/03/28 03:03:16;;;;;;;1.25;0.40;;;;;;;0.94;51.78;101667.91;5050081;28;20101;-67
2023/03/28 03:05:41;;;;;;;1.48;0.40;;;;;;;0.97;51.91;101666.84;5066159;28;20028;-68
2023/03/28 03:08:08;;;;;;;0.82;0.30;;;;;;;0.96;51.42;101666.94;5066787;28;20035;-68
2023/03/28 03:10:33;;;;;;;0.70;0.30;;;;;;;0.86;50.65;101667.66;5066310;28;20124;-68
2023/03/28 03:12:59;;;;;;;1.00;0.40;;;;;;;0.84;51.59;101672.19;5050778;28;20055;-68
2023/03/28 03:15:24;;;;;;;0.57;0.40;;;;;;;0.94;51.08;101669.72;5083847;28;20052;-69
2023/03/28 03:17:51;;;;;;;0.93;0.30;;;;;;;0.98;51.12;101675.63;5083339;28;20521;-69
2023/03/28 03:20:17;;;;;;;1.50;0.40;;;;;;;0.93;51.31;101675.97;5070278;28;20052;-68
2023/03/28 03:22:42;;;;;;;1.15;0.30;;;;;;;0.82;51.19;101679.41;5085776;28;20031;-68
2023/03/28 03:25:09;;;;;;;1.42;0.40;;;;;;;0.78;50.86;101661.22;5060129;28;20061;-69
2023/03/28 03:27:36;;;;;;;1.10;0.43;;;;;;;1.01;51.38;101684.19;5071382;28;20043;-68
2023/03/28 03:30:03;;;;;;;0.82;0.35;;;;;;;0.85;51.19;101675.69;5069009;28;20132;-69
2023/03/28 03:32:29;;;;;;;0.60;0.30;;;;;;;0.73;50.26;101676.59;5055852;28;20021;-69
2023/03/28 03:34:54;;;;;;;0.65;0.22;;;;;;;0.57;49.72;101679.56;5059727;28;20036;-68
2023/03/28 03:37:21;;;;;;;1.98;0.38;;;;;;;0.53;49.88;101697.47;5074804;28;20502;-68
2023/03/28 03:39:46;;;;;;;0.63;0.28;;;;;;;0.70;49.35;101690.94;5062167;28;20028;-68
2023/03/28 03:42:12;;;;;;;0.43;0.30;;;;;;;0.65;49.09;101693.06;5060671;28;20025;-68
2023/03/28 03:44:37;;;;;;;0.80;0.30;;;;;;;0.58;49.73;101670.66;5071355;28;20043;-67
2023/03/28 03:47:04;;;;;;;0.57;0.38;;;;;;;0.84;49.93;101688.09;5071264;28;20044;-69
2023/03/28 03:49:29;;;;;;;0.80;0.30;;;;;;;0.65;49.58;101675.38;5054807;28;20028;-69
2023/03/28 03:51:55;;;;;;;0.80;0.30;;;;;;;0.60;48.54;101696.06;5055046;28;20029;-69
2023/03/28 03:54:20;;;;;;;0.50;0.40;;;;;;;0.56;48.77;101704.31;5038083;28;20033;-69
2023/03/28 03:56:47;;;;;;;0.82;0.40;;;;;;;0.63;48.93;101703.78;5071981;28;20032;-68
2023/03/28 03:59:13;;;;;;;0.93;0.30;;;;;;;0.58;49.18;101707.72;5056303;28;20029;-69
2023/03/28 04:01:40;;;;;;;1.30;0.40;;;;;;;0.40;48.51;101686.09;5071520;28;20037;-69
2023/03/28 04:04:08;;;;;;;1.48;0.32;;;;;;;0.46;48.16;101702.38;5056288;28;20013;-69
2023/03/28 04:06:34;;;;;;;0.40;0.28;;;;;;;0.40;47.93;101689.56;5054767;28;20048;-68
2023/03/28 04:09:00;;;;;;;0.40;0.30;;;;;;;0.46;47.92;101726.22;5054953;28;20098;-68
2023/03/28 04:11:25;;;;;;;0.60;0.30;;;;;;;0.28;47.96;101682.50;5056086;28;20029;-70
2023/03/28 04:13:51;;;;;;;0.73;0.20;;;;;;;0.53;48.84;101723.09;5054790;28;20021;-66
2023/03/28 04:16:16;;;;;;;2.33;0.40;;;;;;;0.75;49.09;101731.16;5061930;28;20399;-68
2023/03/28 04:18:49;;;;;;;0.93;0.38;;;;;;;0.61;48.32;101732.19;5065960;28;20028;-68
2023/03/28 04:21:16;;;;;;;0.77;0.35;;;;;;;0.56;48.21;101725.50;5057738;28;20044;-72
2023/03/28 04:23:47;;;;;;;2.30;0.50;;;;;;;0.47;47.74;101732.34;5070649;28;20084;-71
2023/03/28 04:26:14;;;;;;;0.68;0.30;;;;;;;0.52;47.19;101734.66;5083802;28;20052;-69
2023/03/28 04:28:40;;;;;;;1.77;0.40;;;;;;;0.54;47.61;101709.75;5096280;28;20066;-68
2023/03/28 04:31:06;;;;;;;0.50;0.20;;;;;;;0.76;47.75;101735.50;5071446;28;20025;-68
2023/03/28 04:33:33;;;;;;;0.60;0.30;;;;;;;0.84;48.30;101729.66;5065831;28;20084;-68
2023/03/28 04:36:00;;;;;;;0.75;0.30;;;;;;;0.77;47.95;101739.00;5069857;28;20107;-70
2023/03/28 04:38:30;;;;;;;1.15;0.35;;;;;;;0.63;48.37;101710.88;5082826;28;20028;-70
2023/03/28 04:40:57;;;;;;;0.60;0.40;;;;;;;0.61;47.83;101742.78;5064936;28;20028;-71
2023/03/28 04:43:27;;;;;;;1.77;0.40;;;;;;;0.68;48.25;101751.97;5066339;28;20025;-71
2023/03/28 04:45:53;;;;;;;0.60;0.30;;;;;;;0.99;47.96;101748.84;5065230;28;20028;-71
2023/03/28 04:48:20;;;;;;;0.40;0.25;;;;;;;0.92;47.49;101757.25;5065205;28;20036;-71
2023/03/28 04:50:45;;;;;;;0.70;0.30;;;;;;;0.86;47.64;101754.22;5084190;28;20029;-72
2023/03/28 04:53:11;;;;;;;1.67;0.40;;;;;;;1.05;47.64;101766.97;5066316;28;20041;-68
2023/03/28 04:55:38;;;;;;;0.70;0.40;;;;;;;0.85;48.41;101769.25;5084522;28;20020;-71
2023/03/28 04:58:04;;;;;;;1.35;0.38;;;;;;;0.86;48.26;101772.75;5083427;28;20046;-72
2023/03/28 05:00:30;;;;;;;0.93;0.35;;;;;;;0.70;47.94;101762.47;5066526;28;20357;-71
2023/03/28 05:02:58;;;;;;;0.43;0.20;;;;;;;0.78;47.96;101768.03;5048906;28;20438;-71
2023/03/28 05:05:24;;;;;;;0.60;0.20;;;;;;;0.88;47.06;101770.84;5064957;28;20116;-71
2023/03/28 05:07:50;;;;;;;1.83;0.40;;;;;;;1.33;46.15;101773.72;5064434;28;20095;-70
2023/03/28 05:10:16;;;;;;;1.38;0.30;;;;;;;1.72;44.90;101759.19;5064503;28;20025;-69
2023/03/28 05:12:41;;;;;;;0.55;0.22;;;;;;;2.25;43.91;101782.53;5082342;28;20025;-70
2023/03/28 05:15:07;;;;;;;0.50;0.30;;;;;;;2.65;43.37;101782.00;5063731;28;20033;-69
2023/03/28 05:17:32;;;;;;;0.40;0.30;;;;;;;2.99;41.98;101770.34;5081679;28;20060;-69
2023/03/28 05:19:58;;;;;;;0.80;0.40;;;;;;;2.91;42.41;101790.53;5063417;28;20016;-69
2023/03/28 05:22:23;;;;;;;0.40;0.28;;;;;;;2.97;42.11;101790.88;5079451;28;20039;-69
2023/03/28 05:24:49;;;;;;;1.33;0.40;;;;;;;3.49;41.76;101791.03;5081152;28;20060;-69
2023/03/28 05:27:14;;;;;;;0.77;0.30;;;;;;;3.92;41.01;101790.91;5089384;28;20084;-69
2023/03/28 05:29:40;;;;;;;0.68;0.30;;;;;;;4.20;40.37;101794.69;5075237;28;20029;-69
2023/03/28 05:32:05;;;;;;;2.63;0.38;;;;;;;3.26;41.49;101799.13;5063678;28;20024;-68
2023/03/28 05:34:33;;;;;;;0.70;0.40;;;;;;;2.13;43.44;101804.75;5061129;28;20038;-69
2023/03/28 05:36:58;;;;;;;2.42;0.40;;;;;;;1.62;44.63;101803.31;5046507;28;20028;-69
2023/03/28 05:39:24;;;;;;;0.70;0.30;;;;;;;1.48;44.87;101808.81;5044878;28;20052;-70
2023/03/28 05:41:49;;;;;;;3.45;0.40;;;;;;;1.24;44.87;101814.16;5044078;28;20029;-69
2023/03/28 05:44:15;;;;;;;1.23;0.30;;;;;;;1.40;45.01;101815.56;5061456;28;20056;-69
2023/03/28 05:46:40;;;;;;;0.90;0.40;;;;;;;1.22;44.70;101811.59;5061220;28;20028;-67
2023/03/28 05:49:06;;;;;;;2.95;0.40;;;;;;;1.43;45.22;101811.00;5060469;28;20040;-69
2023/03/28 05:51:31;;;;;;;0.32;0.20;;;;;;;1.34;45.31;101799.25;5079072;28;20032;-69
2023/03/28 05:53:57;;;;;;;1.00;0.30;;;;;;;1.23;45.18;101818.63;5080083;28;20124;-69
2023/03/28 05:56:22;;;;;;;1.13;0.38;;;;;;;0.79;44.78;101759.13;5060722;28;20082;-69
2023/03/28 05:58:48;;;;;;;0.50;0.20;;;;;;;1.10;44.89;101821.34;5078264;28;20468;-69
2023/03/28 06:01:16;;;;;;;1.08;0.40;;;;;;;1.20;44.57;101808.25;5060007;28;20090;-70
2023/03/28 06:03:45;;;;;;;0.60;0.30;;;;;;;1.54;44.63;101811.03;5078516;28;20491;-68
2023/03/28 06:06:11;;;;;;;1.23;0.30;;;;;;;1.24;44.94;101825.59;5061773;28;20055;-70
2023/03/28 06:08:36;;;;;;;0.50;0.30;;;;;;;1.44;44.77;101794.97;5043190;28;20479;-70
2023/03/28 06:11:02;;;;;;;0.90;0.40;;;;;;;1.65;44.58;101822.50;5061307;28;20138;-69
2023/03/28 06:13:28;;;;;;;0.88;0.20;;;;;;;1.75;44.55;101824.47;5060451;28;20027;-69
2023/03/28 06:15:53;;;;;;;0.60;0.30;;;;;;;1.50;44.33;101833.44;5061067;28;20037;-70
2023/03/28 06:18:19;;;;;;;0.73;0.28;;;;;;;1.56;44.44;101827.69;5060463;28;20082;-69
2023/03/28 06:20:45;;;;;;;0.55;0.30;;;;;;;1.72;44.92;101828.19;5044230;28;20198;-70
2023/03/28 06:23:10;;;;;;;1.65;0.40;;;;;;;1.66;44.48;101828.69;5060912;28;20043;-70
2023/03/28 06:25:36;;;;;;;1.30;0.38;;;;;;;1.64;44.48;101820.81;5060583;28;20056;-69
2023/03/28 06:28:01;;;;;;;1.48;0.40;;;;;;;1.75;44.09;101837.72;5043973;28;20036;-69
2023/03/28 06:30:27;;;;;;;1.38;0.55;;;;;;;1.70;44.22;101830.13;5078494;28;20025;-69
2023/03/28 06:32:53;;;;;;;0.98;0.20;;;;;;;1.63;43.99;101836.88;5062425;28;20048;-69
2023/03/28 06:35:19;;;;;;;0.45;0.25;;;;;;;1.70;44.21;101818.69;5045486;28;20039;-70
2023/03/28 06:37:44;;;;;;;1.33;0.40;;;;;;;1.84;43.58;101837.03;5061143;28;20108;-69
2023/03/28 06:40:10;;;;;;;0.77;0.30;;;;;;;2.01;44.07;101831.28;5061720;28;20043;-70
2023/03/28 06:42:36;;;;;;;0.98;0.38;;;;;;;1.84;44.01;101797.22;5044709;28;20061;-69
2023/03/28 06:45:02;;;;;;;1.05;0.50;;;;;;;2.00;43.93;101834.91;5079250;28;20035;-67
2023/03/28 06:47:28;;;;;;;0.80;0.38;;;;;;;2.11;44.16;101834.91;5079717;28;20046;-70
2023/03/28 06:49:54;;;;;;;0.40;0.30;;;;;;;2.21;43.75;101839.50;5079095;28;20471;-70
2023/03/28 06:52:21;;;;;;;0.93;0.43;;;;;;;2.02;43.71;101840.06;5044702;28;20024;-70
2023/03/28 06:54:46;;;;;;;1.17;0.38;;;;;;;2.21;43.68;101836.84;5079013;28;20044;-70
2023/03/28 06:57:12;;;;;;;1.15;0.60;;;;;;;2.10;43.35;101819.94;5061628;28;20108;-70
2023/03/28 06:59:37;;;;;;;0.52;0.32;;;;;;;2.37;42.94;101850.63;5043571;28;20032;-70
2023/03/28 07:02:03;;;;;;;0.55;0.25;;;;;;;2.13;43.11;101844.59;5078048;28;20129;-70
2023/03/28 07:04:28;;;;;;;1.67;0.30;;;;;;;2.44;42.87;101851.00;5060151;28;20020;-70
2023/03/28 07:06:54;;;;;;;0.55;0.30;;;;;;;2.54;42.55;101846.66;5059746;28;20043;-69
2023/03/28 07:09:20;;;;;;;1.40;0.40;;;;;;;2.51;43.29;101854.84;5059970;28;20051;-70
2023/03/28 07:11:45;;;;;;;1.63;0.50;;;;;;;2.64;43.20;101852.91;5078328;28;20112;-70
2023/03/28 07:14:10;;;;;;;1.17;0.30;;;;;;;2.53;42.99;101855.59;5060291;28;20207;-69
2023/03/28 07:16:36;;;;;;;1.38;0.40;;;;;;;2.48;42.47;101849.78;5043427;28;20032;-70
2023/03/28 07:19:01;;;;;;;0.50;0.30;;;;;;;2.64;41.83;101858.22;5043138;28;20024;-69
2023/03/28 07:21:27;;;;;;;2.35;0.30;;;;;;;2.45;41.98;101826.09;5077811;28;20028;-70
2023/03/28 07:23:52;;;;;;;1.17;0.40;;;;;;;2.69;41.77;101860.53;5042962;28;20062;-69
2023/03/28 07:26:18;;;;;;;0.63;0.30;;;;;;;2.64;41.88;101860.88;5059619;28;20056;-69
2023/03/28 07:28:43;;;;;;;0.93;0.30;;;;;;;2.68;41.72;101870.34;5059653;28;20028;-70
2023/03/28 07:31:10;;;;;;;0.55;0.30;;;;;;;2.83;41.65;101866.44;5059725;28;20028;-70
2023/03/28 07:33:36;;;;;;;1.50;0.30;;;;;;;2.81;41.31;101871.03;5060458;28;20045;-69
2023/03/28 07:36:16;;;;;;;0.60;0.30;;;;;;;2.81;40.28;101876.38;5080349;28;20134;-68
2023/03/28 07:38:41;;;;;;;1.98;0.30;;;;;;;2.82;41.02;101872.72;5078351;28;20032;-69
2023/03/28 07:41:07;;;;;;;1.45;0.40;;;;;;;3.13;40.97;101870.25;5077493;28;20363;-70
2023/03/28 07:43:33;;;;;;;0.73;0.22;;;;;;;2.98;40.52;101863.50;5059468;28;20024;-70
2023/03/28 07:46:05;;;;;;;0.50;0.20;;;;;;;2.81;40.76;101838.28;5077115;28;20088;-70
2023/03/28 07:48:31;;;;;;;1.23;0.30;;;;;;;3.12;40.12;101873.88;5058688;28;20159;-69
2023/03/28 07:50:58;;;;;;;0.55;0.30;;;;;;;2.98;40.73;101874.13;5063042;28;20043;-70
2023/03/28 07:53:24;;;;;;;0.63;0.30;;;;;;;2.68;40.51;101874.78;5080935;28;20339;-69
2023/03/28 07:55:50;;;;;;;0.50;0.38;;;;;;;2.71;39.81;101870.06;5080395;28;20032;-69
2023/03/28 07:58:16;;;;;;;1.45;0.20;;;;;;;2.73;40.63;101878.75;5080610;28;20040;-69
2023/03/28 08:00:42;;;;;;;0.60;0.30;;;;;;;2.63;40.50;101880.47;5081025;28;20036;-69
2023/03/28 08:03:07;;;;;;;0.90;0.30;;;;;;;2.66;41.08;101877.56;5062984;28;20039;-69
2023/03/28 08:05:36;;;;;;;0.52;0.20;;;;;;;2.73;40.97;101878.75;5080840;28;20032;-70
2023/03/28 08:08:02;;;;;;;0.25;0.20;;;;;;;2.57;39.98;101875.63;5080856;28;20335;-70
2023/03/28 08:10:28;;;;;;;0.50;0.30;;;;;;;2.94;40.21;101883.34;5062409;28;20044;-70
2023/03/28 08:12:53;;;;;;;0.70;0.28;;;;;;;2.77;39.83;101884.69;5080568;28;20277;-70
2023/03/28 08:15:19;;;;;;;1.40;0.40;;;;;;;2.62;40.50;101862.00;5081037;28;20180;-70
2023/03/28 08:17:44;;;;;;;0.50;0.20;;;;;;;2.88;40.29;101887.34;5063143;28;20119;-69
2023/03/28 08:20:10;;;;;;;0.50;0.20;;;;;;;2.90;39.60;101885.41;5062994;28;20036;-70
2023/03/28 08:22:36;;;;;;;0.65;0.30;;;;;;;2.87;40.43;101890.94;5062484;28;20067;-69
2023/03/28 08:25:02;;;;;;;1.02;0.30;;;;;;;2.91;40.09;101887.06;5062689;28;20503;-69
2023/03/28 08:27:28;;;;;;;0.32;0.20;;;;;;;2.95;39.49;101893.03;5046251;28;20118;-69
2023/03/28 08:29:53;;;;;;;0.35;0.20;;;;;;;2.77;39.63;101898.81;5062410;28;20020;-70
2023/03/28 08:32:19;;;;;;;0.90;0.20;;;;;;;2.98;39.75;101898.94;5045345;28;20036;-69
2023/03/28 08:34:44;;;;;;;1.17;0.30;;;;;;;2.88;39.42;101903.31;5045513;28;20013;-70
2023/03/28 08:37:09;;;;;;;1.05;0.35;;;;;;;2.93;38.94;101908.25;5062790;28;20025;-70
2023/03/28 08:39:36;;;;;;;0.45;0.22;;;;;;;2.81;39.07;101899.41;5080327;28;20028;-69
2023/03/28 08:42:38;;;;;;;0.60;0.20;;;;;;;2.87;37.94;101911.38;5062096;28;20044;-70
2023/03/28 08:45:22;;;;;;;0.35;0.20;;;;;;;2.93;38.08;101908.25;5079537;28;20221;-69
2023/03/28 08:47:59;;;;;;;0.63;0.22;;;;;;;2.82;37.86;101915.25;5080025;28;20369;-69
2023/03/28 08:50:33;;;;;;;0.75;0.40;;;;;;;2.87;38.37;101901.59;5079386;28;20341;-69
2023/03/28 08:53:00;;;;;;;1.00;0.25;;;;;;;2.92;38.77;101906.56;5079994;28;20111;-69
2023/03/28 08:55:38;;;;;;;2.15;0.30;;;;;;;2.94;38.62;101907.25;5079583;28;20060;-69
2023/03/28 08:58:04;;;;;;;1.27;0.32;;;;;;;2.93;38.79;101905.56;5079696;28;20024;-67
2023/03/28 09:00:33;;;;;;;1.35;0.30;;;;;;;3.07;38.79;101910.63;5061638;28;20116;-69
2023/03/28 09:02:59;;;;;;;0.55;0.15;;;;;;;3.01;38.09;101908.47;5060281;28;20024;-70
2023/03/28 09:05:31;;;;;;;1.00;0.28;;;;;;;3.11;38.54;101904.09;5079408;28;20032;-70
2023/03/28 09:08:35;;;;;;;0.15;0.10;;;;;;;3.30;38.18;101906.13;5080082;28;20169;-69
2023/03/28 09:11:12;;;;;;;0.68;0.30;;;;;;;3.33;38.59;101905.03;4981096;28;20214;-69
2023/03/28 09:13:58;;;;;;;0.90;0.30;;;;;;;3.43;38.69;101908.63;4997306;28;20572;-70
2023/03/28 09:16:52;;;;;;;1.85;0.20;;;;;;;3.54;37.79;101905.91;5042791;28;20044;-69
2023/03/28 09:19:39;;;;;;;0.73;0.38;;;;;;;3.01;38.17;101877.41;5080010;28;20028;-70
2023/03/28 09:22:23;;;;;;;0.90;0.10;;;;;;;3.10;36.98;101906.88;5062657;28;20036;-69
2023/03/28 09:24:54;;;;;;;0.93;0.20;;;;;;;3.34;37.07;101904.03;5065204;28;20060;-69
2023/03/28 09:27:20;;;;;;;0.55;0.20;;;;;;;3.50;37.78;101915.13;5079006;28;20024;-70
2023/03/28 09:29:46;;;;;;;0.98;0.28;;;;;;;3.16;36.33;101911.72;5079360;28;20052;-69
2023/03/28 09:32:21;;;;;;;0.28;0.10;;;;;;;2.90;35.74;101879.25;5045133;28;20437;-69
2023/03/28 09:34:49;;;;;;;2.03;0.30;;;;;;;3.20;37.48;101907.84;5060644;28;20037;-70
2023/03/28 09:37:38;;;;;;;0.50;0.20;;;;;;;3.55;37.99;101917.44;5061429;28;20043;-69
2023/03/28 09:40:22;;;;;;;0.50;0.20;;;;;;;3.14;37.67;101919.81;5078937;28;20463;-70
2023/03/28 09:42:57;;;;;;;0.52;0.20;;;;;;;3.24;38.12;101920.75;5045820;28;20025;-69
2023/03/28 09:45:35;;;;;;;0.82;0.30;;;;;;;3.38;37.24;101919.66;5062446;28;20024;-70
2023/03/28 09:48:02;;;;;;;0.17;0.15;;;;;;;3.28;36.61;101889.44;5062242;28;20510;-70
2023/03/28 09:50:28;;;;;;;1.40;0.20;;;;;;;3.16;35.62;101923.19;5046155;28;20029;-69
2023/03/28 09:52:56;;;;;;;1.02;0.20;;;;;;;3.36;35.74;101926.91;5080085;28;20095;-69
2023/03/28 09:55:31;;;;;;;1.10;0.30;;;;;;;3.35;36.23;101922.56;5061989;28;20044;-70
2023/03/28 09:58:02;;;;;;;0.73;0.28;;;;;;;3.57;36.24;101926.13;5080253;28;20032;-69
2023/03/28 10:00:32;;;;;;;2.22;0.38;;;;;;;3.39;35.86;101929.31;5062047;28;20024;-69
2023/03/28 10:02:58;;;;;;;0.30;0.20;;;;;;;3.29;36.30;101923.91;5062556;28;20115;-69
2023/03/28 10:05:32;;;;;;;1.23;0.20;;;;;;;3.52;35.72;101923.84;5045657;28;20467;-69
2023/03/28 10:08:03;;;;;;;0.65;0.20;;;;;;;3.70;36.45;101929.47;5079952;28;20492;-69
2023/03/28 10:10:28;;;;;;;1.67;0.30;;;;;;;3.72;36.48;101919.53;5079086;28;20032;-70
2023/03/28 10:13:02;;;;;;;0.70;0.30;;;;;;;3.64;36.55;101922.84;5059601;28;20032;-69
2023/03/28 10:15:40;;;;;;;2.22;0.30;;;;;;;3.71;37.05;101921.38;5059695;28;20035;-70
2023/03/28 10:18:06;;;;;;;0.25;0.20;;;;;;;3.89;37.59;101942.09;5059548;28;20031;-69
2023/03/28 10:20:36;;;;;;;0.75;0.20;;;;;;;3.87;37.79;101922.72;5043749;28;20032;-69
2023/03/28 10:23:03;;;;;;;1.40;0.30;;;;;;;3.83;37.96;101918.63;5060289;28;20107;-70
2023/03/28 10:25:35;;;;;;;1.00;0.40;;;;;;;3.84;38.41;101931.84;5062535;28;20053;-68
2023/03/28 10:28:04;;;;;;;1.02;0.30;;;;;;;3.88;37.92;101927.09;5078650;28;20032;-69
2023/03/28 10:30:32;;;;;;;1.08;0.30;;;;;;;3.90;37.85;101938.44;5077857;28;20020;-70
2023/03/28 10:33:16;;;;;;;0.68;0.22;;;;;;;3.99;38.39;101943.84;5060136;28;20044;-70
2023/03/28 10:35:47;;;;;;;0.65;0.32;;;;;;;3.73;38.45;101932.72;5077576;28;20036;-70
2023/03/28 10:38:15;;;;;;;0.77;0.38;;;;;;;4.04;39.35;101935.50;5077987;28;20044;-69
2023/03/28 10:40:41;;;;;;;0.65;0.20;;;;;;;3.93;39.83;101912.41;5078252;28;20024;-69
2023/03/28 10:43:14;;;;;;;0.40;0.20;;;;;;;4.13;40.11;101936.53;5061883;28;20089;-69
2023/03/28 10:45:45;;;;;;;0.85;0.30;;;;;;;4.11;39.63;101931.34;5060882;28;20070;-70
2023/03/28 10:48:18;;;;;;;1.67;0.30;;;;;;;4.13;40.74;101933.88;5061832;28;20415;-69
2023/03/28 10:50:49;;;;;;;0.77;0.22;;;;;;;4.29;41.29;101928.94;5061564;28;20131;-70
2023/03/28 10:54:04;;;;;;;0.95;0.25;;;;;;;4.29;40.87;101933.41;5061477;28;20145;-70
2023/03/28 10:56:38;;;;;;;0.82;0.25;;;;;;;4.24;41.59;101921.34;5008491;28;20524;-69
2023/03/28 10:59:36;;;;;;;1.05;0.40;;;;;;;4.39;40.82;101924.50;5061335;28;20031;-68
2023/03/28 11:02:22;;;;;;;0.75;0.40;;;;;;;4.34;41.53;101923.19;5082570;28;20549;-68
2023/03/28 11:05:00;;;;;;;1.75;0.40;;;;;;;4.35;41.42;101920.41;5077580;28;20080;-70
2023/03/28 11:08:01;;;;;;;1.35;0.47;;;;;;;4.32;42.47;101917.19;5079049;28;20020;-69
2023/03/28 11:10:45;;;;;;;1.63;0.55;;;;;;;3.88;42.29;101853.38;5078887;28;20430;-69
2023/03/28 11:13:16;;;;;;;1.45;0.30;;;;;;;4.41;41.97;101922.56;5078460;28;20119;-69
2023/03/28 11:16:02;;;;;;;0.30;0.22;;;;;;;4.19;42.50;101922.69;5078754;28;20032;-70
2023/03/28 11:18:39;;;;;;;1.58;0.40;;;;;;;3.81;43.45;101859.34;5079334;28;20052;-70
2023/03/28 11:21:13;;;;;;;2.03;0.43;;;;;;;4.38;43.12;101925.50;5093177;28;20021;-69
2023/03/28 11:23:54;;;;;;;0.75;0.32;;;;;;;4.40;43.04;101917.34;5084948;28;20100;-70
2023/03/28 11:26:30;;;;;;;0.30;0.20;;;;;;;4.27;42.85;101892.72;5064914;28;20052;-70
2023/03/28 11:29:13;;;;;;;0.93;0.30;;;;;;;4.37;43.45;101914.94;5073906;28;20060;-70
2023/03/28 11:31:50;;;;;;;2.15;0.40;;;;;;;4.42;43.65;101913.59;5078563;28;20032;-70
2023/03/28 11:34:34;;;;;;;1.45;0.35;;;;;;;4.62;44.24;101913.69;5079143;28;20016;-70
2023/03/28 11:37:22;;;;;;;2.33;0.40;;;;;;;4.65;44.19;101914.25;5062186;28;20066;-70
2023/03/28 11:39:57;;;;;;;0.88;0.30;;;;;;;4.77;43.55;101908.81;5049285;28;20129;-69
2023/03/28 11:42:36;;;;;;;1.42;0.50;;;;;;;4.85;44.25;101909.03;5078088;28;20107;-70
2023/03/28 11:45:13;;;;;;;1.35;0.38;;;;;;;4.71;44.96;101892.41;5061681;28;20020;-70
2023/03/28 11:47:50;;;;;;;1.90;0.28;;;;;;;4.75;45.32;101910.81;5079803;28;20411;-70
2023/03/28 11:50:22;;;;;;;2.83;0.50;;;;;;;4.90;44.54;101915.66;5079030;28;20064;-69